Time;durP1;ratioP1;P1;durP2;ratioP2;P2;SDS_P1;SDS_P2;PMS_P1;PMS_P2;Temp;Humidity;BMP_temperature;BMP_pressure;BME280_temperature;BME280_humidity;BME280_pressure;Samples;Min_cycle;Max_cycle;Signal;HPM_P1;HPM_P2
2024/03/10 00:02:22;;;;;;;1.50;1.03;;;10.40;95.20;;;;;;6160289;23;20439;-79
2024/03/10 00:04:49;;;;;;;1.50;1.10;;;10.30;95.60;;;;;;6162136;23;20437;-79
2024/03/10 00:07:15;;;;;;;1.50;1.10;;;10.30;95.80;;;;;;6159189;23;20511;-79
2024/03/10 00:09:42;;;;;;;1.50;1.10;;;10.20;95.90;;;;;;6161558;23;20424;-79
2024/03/10 00:12:09;;;;;;;1.50;1.10;;;10.10;96.00;;;;;;6157759;23;20526;-78
2024/03/10 00:14:36;;;;;;;1.50;1.10;;;10.10;96.20;;;;;;6171525;23;20429;-78
2024/03/10 00:17:03;;;;;;;1.47;1.00;;;10.10;96.10;;;;;;6153587;23;20475;-79
2024/03/10 00:19:31;;;;;;;1.50;1.10;;;10.10;96.20;;;;;;6163079;23;20501;-79
2024/03/10 00:21:58;;;;;;;1.50;1.10;;;10.10;96.10;;;;;;6156652;23;20502;-79
2024/03/10 00:24:25;;;;;;;1.50;1.13;;;10.10;96.20;;;;;;6166178;23;20509;-79
2024/03/10 00:26:51;;;;;;;1.50;1.10;;;10.10;96.30;;;;;;6154684;23;20475;-79
2024/03/10 00:29:18;;;;;;;1.50;1.20;;;10.10;96.40;;;;;;6166631;23;20968;-79
2024/03/10 00:31:45;;;;;;;1.50;1.10;;;10.10;96.70;;;;;;6154187;23;20459;-79
2024/03/10 00:34:12;;;;;;;1.50;1.10;;;10.10;96.40;;;;;;6171522;23;20851;-79
2024/03/10 00:36:40;;;;;;;1.50;1.20;;;10.10;96.40;;;;;;6151109;23;20526;-79
2024/03/10 00:39:07;;;;;;;1.50;1.03;;;10.00;96.30;;;;;;6169342;23;20447;-79
2024/03/10 00:41:35;;;;;;;1.50;1.10;;;10.00;96.30;;;;;;6150517;23;20448;-79
2024/03/10 00:44:02;;;;;;;1.50;1.10;;;10.00;97.00;;;;;;6170709;23;20468;-79
2024/03/10 00:46:30;;;;;;;1.50;1.10;;;10.00;97.30;;;;;;6150013;23;20515;-79
2024/03/10 00:48:58;;;;;;;1.50;1.17;;;10.00;97.50;;;;;;6171195;23;20475;-78
2024/03/10 00:51:25;;;;;;;1.50;1.30;;;9.90;97.90;;;;;;6149922;23;20452;-79
2024/03/10 00:53:54;;;;;;;1.50;1.10;;;9.90;97.70;;;;;;6171007;23;20445;-79
2024/03/10 00:56:20;;;;;;;1.50;1.20;;;9.90;97.80;;;;;;6148391;23;20451;-79
2024/03/10 00:58:47;;;;;;;1.50;1.20;;;9.90;97.60;;;;;;6174261;23;20936;-78
2024/03/10 01:01:14;;;;;;;1.50;1.10;;;9.90;97.50;;;;;;6148394;23;20475;-79
2024/03/10 01:03:42;;;;;;;1.50;1.10;;;9.80;97.10;;;;;;6176995;23;20437;-78
2024/03/10 01:06:12;;;;;;;1.50;1.10;;;9.80;97.20;;;;;;6147282;23;20459;-79
2024/03/10 01:08:39;;;;;;;1.50;1.10;;;9.80;97.20;;;;;;6174224;23;20416;-79
2024/03/10 01:11:10;;;;;;;1.50;1.10;;;9.80;97.10;;;;;;6148315;23;20437;-78
2024/03/10 01:13:37;;;;;;;1.47;1.10;;;9.80;97.30;;;;;;6177605;23;20425;-78
2024/03/10 01:16:05;;;;;;;1.50;1.10;;;9.80;97.40;;;;;;6147934;23;20445;-79
2024/03/10 01:18:32;;;;;;;1.50;1.10;;;9.80;97.40;;;;;;6176225;23;20757;-79
2024/03/10 01:20:59;;;;;;;1.50;1.10;;;9.80;97.40;;;;;;6147012;23;20505;-78
2024/03/10 01:23:26;;;;;;;1.50;1.10;;;9.80;97.40;;;;;;6179838;23;20457;-79
2024/03/10 01:25:53;;;;;;;1.50;1.10;;;9.80;97.20;;;;;;6144198;23;20441;-78
2024/03/10 01:28:21;;;;;;;1.47;1.10;;;9.80;97.40;;;;;;6179815;23;20909;-80
2024/03/10 01:30:48;;;;;;;1.50;1.20;;;9.70;97.50;;;;;;6144161;23;20421;-80
2024/03/10 01:33:15;;;;;;;1.50;1.10;;;9.70;97.50;;;;;;6179301;23;20533;-80
2024/03/10 01:35:42;;;;;;;1.50;1.10;;;9.70;97.60;;;;;;6155185;23;20437;-80
2024/03/10 01:38:09;;;;;;;1.50;1.10;;;9.80;97.50;;;;;;6164170;23;20452;-80
2024/03/10 01:40:36;;;;;;;1.50;1.10;;;9.80;97.40;;;;;;6156814;23;21004;-79
2024/03/10 01:43:04;;;;;;;1.50;1.10;;;9.80;97.30;;;;;;6166533;23;20444;-79
2024/03/10 01:45:32;;;;;;;1.43;1.07;;;9.90;97.10;;;;;;6158186;23;20437;-79
2024/03/10 01:47:59;;;;;;;1.50;1.10;;;9.90;97.00;;;;;;6166238;23;20534;-80
2024/03/10 01:50:27;;;;;;;1.43;1.07;;;9.90;97.00;;;;;;6156258;23;20642;-80
2024/03/10 01:52:53;;;;;;;1.50;1.10;;;9.90;97.30;;;;;;6167525;23;20454;-80
2024/03/10 01:55:21;;;;;;;1.50;1.10;;;9.90;97.20;;;;;;6158608;23;20443;-79
2024/03/10 01:57:48;;;;;;;1.50;1.17;;;9.90;97.10;;;;;;6168645;23;20448;-82
2024/03/10 02:00:16;;;;;;;1.50;1.20;;;9.90;97.20;;;;;;6162269;23;20421;-78
2024/03/10 02:02:44;;;;;;;1.50;1.17;;;10.00;97.20;;;;;;6167532;23;20519;-78
2024/03/10 02:05:11;;;;;;;1.50;1.20;;;10.00;97.00;;;;;;6151413;23;20498;-78
2024/03/10 02:07:37;;;;;;;1.50;1.10;;;10.00;96.80;;;;;;6158573;23;20556;-79
2024/03/10 02:10:06;;;;;;;1.50;1.10;;;10.00;97.00;;;;;;6153411;23;21000;-78
2024/03/10 02:12:33;;;;;;;1.50;1.10;;;10.00;97.10;;;;;;6158532;23;20577;-79
2024/03/10 02:15:01;;;;;;;1.50;1.10;;;10.00;96.90;;;;;;6154318;23;20443;-79
2024/03/10 02:17:28;;;;;;;1.50;1.10;;;10.00;96.90;;;;;;6156823;23;20455;-79
2024/03/10 02:19:57;;;;;;;1.50;1.10;;;10.00;97.00;;;;;;6155298;23;21002;-79
2024/03/10 02:22:26;;;;;;;1.50;1.10;;;10.00;97.00;;;;;;6157528;23;20451;-79
2024/03/10 02:24:57;;;;;;;1.50;1.10;;;10.00;97.10;;;;;;6156726;23;20675;-79
2024/03/10 02:27:25;;;;;;;1.50;1.13;;;10.00;96.90;;;;;;6155898;23;20447;-79
2024/03/10 02:30:18;;;;;;;1.47;1.10;;;10.10;97.00;;;;;;6164743;23;20428;-78
2024/03/10 02:49:13;;;;;;;1.50;1.00;;;10.00;97.30;;;;;;6162476;23;20388;-80
2024/03/10 02:51:42;;;;;;;1.50;1.10;;;10.00;97.30;;;;;;6146852;23;20443;-80
2024/03/10 02:54:09;;;;;;;1.50;1.13;;;10.00;97.20;;;;;;6163915;23;20532;-80
2024/03/10 02:56:35;;;;;;;1.50;1.10;;;10.10;97.10;;;;;;6144892;23;21059;-80
2024/03/10 02:59:03;;;;;;;1.47;1.10;;;10.10;96.80;;;;;;6164224;23;20420;-80
2024/03/10 03:01:31;;;;;;;1.50;1.13;;;10.20;96.70;;;;;;6145467;23;20879;-80
2024/03/10 03:03:57;;;;;;;1.50;1.00;;;10.20;96.70;;;;;;6165552;23;20417;-80
2024/03/10 03:06:24;;;;;;;1.47;1.10;;;10.20;96.50;;;;;;6143534;23;20485;-80
2024/03/10 03:08:51;;;;;;;1.50;1.10;;;10.30;96.40;;;;;;6165650;23;20532;-80
2024/03/10 03:11:18;;;;;;;1.50;1.10;;;10.30;96.20;;;;;;6142356;23;20469;-80
2024/03/10 03:13:45;;;;;;;1.47;1.10;;;10.40;96.20;;;;;;6168025;23;20484;-80
2024/03/10 03:16:14;;;;;;;1.50;1.10;;;10.40;96.10;;;;;;6142011;23;20447;-80
2024/03/10 03:18:42;;;;;;;1.47;1.03;;;10.40;96.00;;;;;;6168900;23;20447;-80
2024/03/10 03:21:09;;;;;;;1.50;1.10;;;10.50;95.80;;;;;;6140186;23;20452;-80
2024/03/10 03:23:36;;;;;;;1.50;1.10;;;10.50;95.90;;;;;;6170265;23;20484;-80
2024/03/10 03:26:03;;;;;;;1.43;1.10;;;10.50;95.70;;;;;;6142804;23;20444;-80
2024/03/10 03:28:30;;;;;;;1.60;1.50;;;10.50;95.70;;;;;;6170192;23;20595;-80
2024/03/10 03:30:57;;;;;;;1.50;1.10;;;10.60;95.70;;;;;;6140599;23;20905;-80
2024/03/10 03:33:25;;;;;;;1.50;1.40;;;10.60;95.60;;;;;;6174791;23;20537;-80
2024/03/10 03:35:52;;;;;;;1.50;1.10;;;10.60;95.70;;;;;;6149814;23;20502;-80
2024/03/10 03:38:19;;;;;;;1.50;1.10;;;10.60;95.60;;;;;;6174759;23;20417;-80
2024/03/10 03:40:46;;;;;;;1.50;1.10;;;10.50;95.90;;;;;;6151012;23;20421;-80
2024/03/10 03:43:12;;;;;;;1.70;1.30;;;10.60;95.80;;;;;;6176905;23;20437;-80
2024/03/10 03:45:39;;;;;;;1.47;1.10;;;10.60;95.80;;;;;;6154247;23;20472;-80
2024/03/10 03:48:07;;;;;;;1.50;1.10;;;10.60;95.90;;;;;;6161807;23;20448;-80
2024/03/10 03:50:35;;;;;;;1.50;1.10;;;10.60;95.70;;;;;;6153445;23;20481;-80
2024/03/10 03:53:02;;;;;;;1.50;1.00;;;10.60;95.80;;;;;;6163284;23;20456;-80
2024/03/10 03:55:29;;;;;;;1.50;1.10;;;10.60;95.70;;;;;;6155508;23;20627;-80
2024/03/10 03:57:55;;;;;;;1.50;1.17;;;10.70;95.70;;;;;;6163084;23;20450;-80
2024/03/10 04:00:22;;;;;;;1.73;1.43;;;10.70;95.70;;;;;;6155065;23;20417;-80
2024/03/10 04:02:54;;;;;;;1.47;1.10;;;10.70;95.80;;;;;;6169137;23;20860;-78
2024/03/10 04:06:04;;;;;;;1.47;1.10;;;10.70;95.60;;;;;;6167631;23;20433;-80
2024/03/10 04:08:37;;;;;;;1.50;1.10;;;10.70;95.70;;;;;;6107653;23;20930;-80
2024/03/10 04:11:04;;;;;;;1.50;1.10;;;10.70;95.50;;;;;;6109373;23;20422;-80
2024/03/10 04:13:31;;;;;;;1.50;1.03;;;10.70;95.60;;;;;;6133595;23;20473;-80
2024/03/10 04:15:58;;;;;;;1.50;1.00;;;10.70;95.70;;;;;;6107354;23;21195;-80
2024/03/10 04:18:24;;;;;;;1.50;1.00;;;10.70;95.60;;;;;;6123066;23;20506;-80
2024/03/10 04:20:51;;;;;;;1.50;1.10;;;10.70;95.60;;;;;;6164546;23;20546;-80
2024/03/10 04:23:25;;;;;;;1.50;1.10;;;10.70;95.70;;;;;;6212935;23;20451;-80
2024/03/10 04:25:52;;;;;;;1.50;1.10;;;10.70;95.60;;;;;;6173155;23;20507;-80
2024/03/10 04:28:19;;;;;;;1.43;1.00;;;10.70;95.70;;;;;;6208011;23;20807;-80
2024/03/10 04:30:46;;;;;;;1.47;1.10;;;10.70;95.70;;;;;;6179376;23;20448;-80
2024/03/10 04:33:14;;;;;;;1.50;1.10;;;10.70;95.70;;;;;;6208537;23;20503;-80
2024/03/10 04:35:40;;;;;;;12.83;3.63;;;10.70;95.70;;;;;;6184548;23;20432;-80
2024/03/10 04:38:07;;;;;;;1.47;1.10;;;10.70;95.70;;;;;;6195013;23;20767;-80
2024/03/10 04:40:35;;;;;;;1.50;1.10;;;10.70;95.70;;;;;;6186127;23;20503;-81
2024/03/10 04:43:02;;;;;;;1.50;1.10;;;10.70;95.70;;;;;;6195207;23;20525;-80
2024/03/10 04:45:29;;;;;;;1.50;1.10;;;10.70;95.80;;;;;;6186442;23;20953;-80
2024/03/10 04:47:56;;;;;;;1.47;1.00;;;10.70;95.90;;;;;;6196549;23;20534;-80
2024/03/10 04:50:24;;;;;;;1.50;1.10;;;10.70;96.00;;;;;;6188220;23;20919;-80
2024/03/10 04:52:52;;;;;;;1.50;1.10;;;10.70;95.90;;;;;;6196704;23;20545;-80
2024/03/10 04:55:20;;;;;;;1.50;1.10;;;10.70;96.20;;;;;;6197062;23;20443;-80
2024/03/10 04:57:48;;;;;;;1.50;1.10;;;10.70;95.90;;;;;;6200360;23;20461;-80
2024/03/10 05:00:18;;;;;;;1.50;1.10;;;10.70;96.00;;;;;;6189496;23;20424;-80
2024/03/10 05:02:46;;;;;;;1.50;1.10;;;10.80;95.90;;;;;;6195990;23;20470;-80
2024/03/10 05:05:13;;;;;;;1.50;1.00;;;10.80;95.70;;;;;;6187231;23;20440;-80
2024/03/10 05:07:41;;;;;;;1.50;1.03;;;10.90;95.80;;;;;;6196519;23;20470;-80
2024/03/10 05:10:08;;;;;;;1.43;1.10;;;10.90;95.60;;;;;;6189086;23;20420;-80
2024/03/10 05:12:35;;;;;;;1.50;1.10;;;10.90;95.40;;;;;;6194087;23;20447;-80
2024/03/10 05:15:04;;;;;;;1.50;1.10;;;10.90;95.40;;;;;;6192398;23;20448;-80
2024/03/10 05:17:31;;;;;;;1.50;1.30;;;11.00;95.20;;;;;;6195225;23;20526;-80
2024/03/10 05:19:59;;;;;;;1.60;1.33;;;11.00;95.10;;;;;;6187625;23;20518;-81
2024/03/10 05:22:27;;;;;;;1.50;1.10;;;11.00;95.30;;;;;;6190045;23;20792;-81
2024/03/10 05:24:54;;;;;;;1.50;1.00;;;11.00;95.50;;;;;;6199055;23;20440;-80
2024/03/10 05:27:21;;;;;;;1.50;1.10;;;10.90;95.70;;;;;;6187115;23;20447;-80
2024/03/10 05:29:48;;;;;;;1.47;1.10;;;10.90;95.60;;;;;;6190686;23;20416;-78
2024/03/10 05:32:17;;;;;;;1.47;1.00;;;10.90;95.80;;;;;;6187433;23;20476;-78
2024/03/10 05:34:43;;;;;;;1.50;1.07;;;10.80;96.10;;;;;;6189998;23;20452;-79
2024/03/10 05:37:10;;;;;;;1.50;1.10;;;10.80;96.10;;;;;;6186996;23;20845;-79
2024/03/10 05:39:37;;;;;;;1.43;1.07;;;10.80;96.30;;;;;;6192289;23;20420;-80
2024/03/10 05:42:05;;;;;;;1.50;1.00;;;10.70;96.50;;;;;;6187600;22;20463;-83
2024/03/10 05:44:33;;;;;;;1.50;1.10;;;10.70;96.50;;;;;;6174223;23;20416;-80
2024/03/10 05:47:00;;;;;;;1.50;1.10;;;10.70;96.40;;;;;;6171258;23;20443;-85
2024/03/10 05:49:28;;;;;;;1.47;1.00;;;10.70;96.50;;;;;;6171277;23;20435;-80
2024/03/10 05:51:55;;;;;;;1.50;1.00;;;10.70;96.70;;;;;;6168418;23;20455;-80
2024/03/10 05:54:22;;;;;;;1.47;1.10;;;10.70;96.70;;;;;;6175636;23;20445;-78
2024/03/10 05:56:49;;;;;;;1.47;1.10;;;10.70;97.20;;;;;;6163714;22;20454;-81
2024/03/10 05:59:16;;;;;;;1.50;1.10;;;10.60;97.50;;;;;;6177854;23;20520;-80
2024/03/10 06:01:45;;;;;;;1.50;1.10;;;10.60;97.90;;;;;;6160271;23;20455;-80
2024/03/10 06:04:11;;;;;;;1.47;1.10;;;10.50;98.10;;;;;;6178754;23;20440;-83
2024/03/10 06:06:39;;;;;;;1.50;1.20;;;10.50;98.20;;;;;;6161762;23;20457;-81
2024/03/10 06:09:07;;;;;;;1.50;1.00;;;10.40;98.20;;;;;;6180343;23;20429;-78
2024/03/10 06:11:34;;;;;;;1.50;1.10;;;10.30;98.20;;;;;;6155410;23;20501;-76
2024/03/10 06:14:01;;;;;;;1.43;1.10;;;10.20;98.20;;;;;;6180825;23;20423;-76
2024/03/10 06:16:29;;;;;;;1.47;1.10;;;10.20;98.20;;;;;;6149590;23;20742;-77
2024/03/10 06:27:12;;;;;;;2.87;2.60;;;9.90;98.20;;;;;;6169598;23;20562;-77
2024/03/10 06:29:39;;;;;;;1.50;1.20;;;9.80;98.20;;;;;;6163120;23;20452;-77
2024/03/10 06:32:07;;;;;;;1.50;1.10;;;9.80;98.20;;;;;;6166283;23;20451;-77
2024/03/10 06:34:33;;;;;;;1.50;1.10;;;9.70;98.20;;;;;;6163069;23;20453;-77
2024/03/10 06:37:02;;;;;;;1.50;1.10;;;9.70;98.20;;;;;;6150741;23;20432;-77
2024/03/10 06:39:28;;;;;;;1.50;1.10;;;9.60;98.20;;;;;;6150357;23;20744;-77
2024/03/10 06:41:55;;;;;;;1.50;1.10;;;9.60;98.20;;;;;;6149758;23;20449;-77
2024/03/10 06:44:22;;;;;;;1.50;1.10;;;9.60;98.20;;;;;;6151081;23;20413;-77
2024/03/10 06:46:49;;;;;;;1.50;1.20;;;9.50;98.20;;;;;;6151031;23;20417;-77
2024/03/10 06:49:16;;;;;;;1.50;1.10;;;9.50;98.20;;;;;;6151987;23;20416;-77
2024/03/10 06:51:44;;;;;;;1.50;1.10;;;9.50;98.20;;;;;;6148596;23;20519;-77
2024/03/10 06:54:13;;;;;;;1.50;1.20;;;9.50;98.20;;;;;;6151397;23;20427;-77
2024/03/10 06:56:39;;;;;;;1.50;1.20;;;9.40;98.20;;;;;;6152666;23;20417;-77
2024/03/10 06:59:06;;;;;;;1.50;1.33;;;9.40;98.20;;;;;;6152543;23;20452;-78
2024/03/10 07:01:33;;;;;;;1.50;1.10;;;9.40;98.20;;;;;;6163117;23;20436;-78
2024/03/10 07:04:00;;;;;;;1.43;1.10;;;9.40;98.20;;;;;;6154143;23;20652;-77
2024/03/10 07:06:27;;;;;;;1.50;1.10;;;9.40;98.20;;;;;;6154817;23;20456;-78
2024/03/10 07:08:54;;;;;;;1.50;1.10;;;9.40;98.20;;;;;;6153640;23;20917;-78
2024/03/10 07:11:22;;;;;;;1.50;1.10;;;9.40;98.20;;;;;;6153825;23;20519;-78
2024/03/10 07:13:49;;;;;;;1.50;1.20;;;9.40;98.20;;;;;;6154589;23;20528;-78
2024/03/10 07:16:15;;;;;;;1.50;1.10;;;9.40;98.20;;;;;;6153862;23;20444;-79
2024/03/10 07:18:42;;;;;;;1.50;1.10;;;9.40;98.20;;;;;;6155340;23;20421;-78
2024/03/10 07:21:09;;;;;;;1.50;1.10;;;9.50;98.20;;;;;;6155213;23;20417;-79
2024/03/10 07:23:36;;;;;;;1.50;1.20;;;9.50;98.20;;;;;;6164598;23;20435;-79
2024/03/10 07:26:02;;;;;;;1.50;1.20;;;9.50;98.20;;;;;;6153721;23;20416;-79
2024/03/10 07:28:31;;;;;;;1.47;1.10;;;9.60;98.20;;;;;;6154196;23;20416;-79
2024/03/10 07:30:58;;;;;;;1.50;1.10;;;9.60;98.20;;;;;;6154033;23;20416;-78
2024/03/10 07:33:25;;;;;;;1.50;1.20;;;9.60;98.20;;;;;;6153074;23;20421;-79
2024/03/10 07:35:52;;;;;;;1.50;1.10;;;9.60;98.20;;;;;;6154760;23;20441;-80
2024/03/10 07:38:20;;;;;;;1.50;1.10;;;9.70;98.20;;;;;;6155133;23;20425;-79
2024/03/10 07:40:47;;;;;;;1.50;1.10;;;9.70;98.20;;;;;;6154648;23;20903;-80
2024/03/10 07:43:15;;;;;;;1.50;1.10;;;9.70;98.20;;;;;;6152820;23;20448;-79
2024/03/10 07:45:44;;;;;;;1.47;1.10;;;9.80;98.20;;;;;;6153471;23;20439;-79
2024/03/10 07:48:10;;;;;;;1.43;1.10;;;9.80;98.20;;;;;;6151540;23;20800;-79
2024/03/10 07:50:37;;;;;;;1.47;1.00;;;9.80;98.20;;;;;;6152325;23;20431;-78
2024/03/10 07:53:04;;;;;;;1.50;1.10;;;9.90;98.20;;;;;;6153848;23;20975;-78
2024/03/10 07:55:31;;;;;;;1.40;1.10;;;9.90;98.20;;;;;;6151533;23;20978;-79
2024/03/10 07:57:58;;;;;;;1.50;1.10;;;10.00;98.20;;;;;;6152588;23;20421;-78
2024/03/10 08:00:26;;;;;;;1.47;1.00;;;10.00;98.20;;;;;;6153557;23;20822;-78
2024/03/10 08:02:54;;;;;;;1.47;1.03;;;10.00;98.20;;;;;;6153241;23;20715;-79
2024/03/10 08:05:21;;;;;;;1.50;1.10;;;10.00;98.20;;;;;;6152309;23;20932;-79
2024/03/10 08:07:49;;;;;;;1.50;1.10;;;10.10;98.20;;;;;;6155001;23;20512;-80
2024/03/10 08:10:17;;;;;;;1.50;1.20;;;10.20;98.20;;;;;;6153752;23;20425;-78
2024/03/10 08:12:46;;;;;;;1.50;1.00;;;10.20;98.20;;;;;;6155417;23;20447;-78
2024/03/10 08:15:13;;;;;;;1.43;1.07;;;10.30;98.20;;;;;;6152751;23;20445;-79
2024/03/10 08:17:41;;;;;;;1.50;1.10;;;10.30;98.20;;;;;;6184677;23;20518;-79
2024/03/10 08:20:13;;;;;;;1.50;1.00;;;10.40;98.20;;;;;;6155752;23;20421;-79
2024/03/10 08:22:41;;;;;;;1.50;1.10;;;10.50;98.20;;;;;;6185008;23;20474;-79
2024/03/10 08:25:08;;;;;;;1.50;1.10;;;10.70;98.20;;;;;;6156482;23;20471;-79
2024/03/10 08:27:35;;;;;;;1.47;1.00;;;10.80;98.20;;;;;;6182802;23;20455;-79
2024/03/10 08:30:03;;;;;;;1.50;1.00;;;10.90;98.20;;;;;;6158255;23;20589;-79
2024/03/10 08:32:30;;;;;;;1.47;0.90;;;11.10;98.20;;;;;;6177567;23;20450;-79
2024/03/10 08:34:57;;;;;;;1.50;1.00;;;11.30;98.20;;;;;;6158977;23;20449;-81
2024/03/10 08:37:27;;;;;;;1.50;1.10;;;11.60;98.20;;;;;;6177570;23;20745;-79
2024/03/10 08:39:55;;;;;;;1.50;1.00;;;11.90;98.20;;;;;;6157910;23;20801;-79
2024/03/10 08:42:24;;;;;;;1.50;1.03;;;12.20;98.20;;;;;;6172597;23;20455;-78
2024/03/10 08:44:53;;;;;;;1.50;1.00;;;12.40;98.20;;;;;;6158387;23;20491;-79
2024/03/10 08:47:20;;;;;;;1.50;1.00;;;12.70;98.20;;;;;;6174259;23;20516;-79
2024/03/10 08:49:47;;;;;;;1.50;1.00;;;12.90;97.40;;;;;;6160930;23;20421;-79
2024/03/10 08:52:14;;;;;;;1.50;1.00;;;13.00;96.20;;;;;;6169259;23;20480;-79
2024/03/10 08:54:42;;;;;;;1.50;1.00;;;13.10;96.00;;;;;;6165946;23;20782;-79
2024/03/10 08:57:10;;;;;;;1.50;0.93;;;13.30;95.60;;;;;;6171001;23;20554;-80
2024/03/10 08:59:36;;;;;;;1.50;1.00;;;13.40;95.10;;;;;;6168376;23;20910;-80
2024/03/10 09:02:04;;;;;;;1.47;1.00;;;13.50;94.60;;;;;;6169556;23;20454;-81
2024/03/10 09:04:31;;;;;;;1.50;1.00;;;13.50;92.10;;;;;;6170926;23;20855;-79
2024/03/10 09:06:58;;;;;;;1.50;1.00;;;13.50;91.40;;;;;;6168857;23;20447;-81
2024/03/10 09:09:25;;;;;;;1.50;0.93;;;13.50;90.90;;;;;;6173729;23;20427;-80
2024/03/10 09:11:53;;;;;;;1.47;1.00;;;13.50;89.90;;;;;;6164830;23;20485;-81
2024/03/10 09:14:22;;;;;;;1.43;0.90;;;13.60;90.50;;;;;;6173172;23;20448;-78
2024/03/10 09:16:50;;;;;;;1.50;0.90;;;13.80;90.70;;;;;;6164195;23;20447;-78
2024/03/10 09:19:16;;;;;;;1.60;1.10;;;14.00;90.00;;;;;;6176160;23;20688;-81
2024/03/10 09:21:44;;;;;;;1.50;1.00;;;14.20;89.20;;;;;;6161902;23;20461;-79
2024/03/10 09:24:11;;;;;;;1.50;1.00;;;14.30;89.60;;;;;;6177899;23;20477;-81
2024/03/10 09:26:39;;;;;;;1.50;0.90;;;14.50;90.50;;;;;;6159187;23;20501;-80
2024/03/10 09:29:07;;;;;;;1.50;1.00;;;14.70;90.00;;;;;;6179911;23;20476;-80
2024/03/10 09:31:34;;;;;;;1.50;0.90;;;14.70;89.40;;;;;;6157548;23;20538;-79
2024/03/10 09:34:03;;;;;;;1.43;0.90;;;14.90;90.10;;;;;;6183091;23;20512;-80
2024/03/10 09:36:33;;;;;;;1.43;0.90;;;15.00;89.90;;;;;;6155685;23;20447;-80
2024/03/10 09:39:00;;;;;;;1.50;1.00;;;15.00;89.50;;;;;;6184357;23;20770;-80
2024/03/10 09:41:29;;;;;;;1.50;1.10;;;15.20;89.90;;;;;;6156013;23;20942;-80
2024/03/10 09:43:58;;;;;;;1.50;0.90;;;15.40;90.10;;;;;;6183952;23;20699;-81
2024/03/10 09:46:27;;;;;;;1.50;1.00;;;15.60;89.30;;;;;;6154734;23;20451;-80
2024/03/10 09:48:54;;;;;;;1.50;0.90;;;15.70;87.60;;;;;;6185991;23;20439;-80
2024/03/10 09:51:22;;;;;;;1.50;0.90;;;15.70;87.80;;;;;;6160023;23;20526;-80
2024/03/10 09:53:50;;;;;;;1.50;0.90;;;15.80;89.10;;;;;;6187381;23;20417;-80
2024/03/10 09:56:17;;;;;;;1.47;0.90;;;15.90;88.20;;;;;;6149616;23;20450;-80
2024/03/10 09:58:47;;;;;;;1.50;0.90;;;16.00;87.60;;;;;;6188221;23;20421;-81
2024/03/10 10:01:18;;;;;;;1.50;0.90;;;16.10;87.20;;;;;;6149827;23;20465;-80
2024/03/10 10:03:49;;;;;;;1.43;1.00;;;16.10;86.90;;;;;;6188895;23;20405;-80
2024/03/10 10:06:17;;;;;;;1.50;1.00;;;16.20;87.10;;;;;;6150509;23;20501;-81
2024/03/10 10:08:45;;;;;;;1.50;1.00;;;16.40;86.70;;;;;;6189634;23;20926;-80
2024/03/10 10:11:13;;;;;;;1.50;1.10;;;16.60;87.70;;;;;;6145134;23;20453;-81
2024/03/10 10:13:42;;;;;;;1.50;1.00;;;16.80;86.60;;;;;;6203316;23;20401;-80
2024/03/10 10:16:09;;;;;;;1.50;0.90;;;17.00;85.60;;;;;;6171463;23;20486;-77
2024/03/10 10:18:36;;;;;;;1.50;0.90;;;17.20;85.10;;;;;;6199784;23;20430;-77
2024/03/10 10:21:07;;;;;;;1.50;0.90;;;17.30;84.10;;;;;;6177271;23;20450;-79
2024/03/10 10:23:36;;;;;;;1.50;0.90;;;17.30;84.40;;;;;;6189742;23;20620;-77
2024/03/10 10:26:09;;;;;;;1.43;0.90;;;17.20;82.80;;;;;;6138878;23;20428;-77
2024/03/10 10:28:37;;;;;;;1.50;0.90;;;17.20;81.30;;;;;;6187901;23;20475;-78
2024/03/10 10:31:14;;;;;;;1.50;1.00;;;17.40;82.60;;;;;;6141479;23;20457;-77
2024/03/10 10:33:45;;;;;;;1.50;0.90;;;17.70;84.00;;;;;;6187136;23;20415;-78
2024/03/10 10:36:25;;;;;;;1.60;1.20;;;18.00;81.70;;;;;;6155543;23;20517;-78
2024/03/10 10:38:52;;;;;;;1.50;0.90;;;18.10;80.80;;;;;;6197856;23;20479;-77
2024/03/10 10:41:20;;;;;;;1.50;0.90;;;18.40;81.40;;;;;;6147811;23;20451;-77
2024/03/10 10:43:47;;;;;;;1.50;0.90;;;18.60;80.80;;;;;;6185202;23;20536;-77
2024/03/10 10:46:14;;;;;;;1.47;0.90;;;18.60;80.00;;;;;;6147986;23;20449;-78
2024/03/10 10:48:41;;;;;;;1.50;0.90;;;18.60;80.10;;;;;;6189021;23;20475;-78
2024/03/10 10:51:08;;;;;;;1.50;0.90;;;18.60;79.80;;;;;;6146490;23;20602;-78
2024/03/10 10:53:38;;;;;;;1.50;0.90;;;18.70;81.00;;;;;;6191582;23;20929;-77
2024/03/10 10:56:05;;;;;;;1.50;0.90;;;19.00;81.20;;;;;;6153463;23;20444;-77
2024/03/10 10:58:34;;;;;;;1.50;0.90;;;18.90;76.90;;;;;;6192739;23;20420;-77
2024/03/10 11:01:05;;;;;;;1.50;1.00;;;18.50;77.40;;;;;;6141842;23;20420;-77
2024/03/10 11:03:36;;;;;;;1.47;0.90;;;18.40;77.60;;;;;;6195087;23;20401;-79
2024/03/10 11:06:30;;;;;;;2.23;1.83;;;18.10;78.50;;;;;;6145336;23;20475;-78
2024/03/10 11:08:59;;;;;;;1.50;0.90;;;18.00;79.40;;;;;;6183884;23;20416;-78
2024/03/10 11:11:44;;;;;;;1.43;0.90;;;17.90;80.20;;;;;;6153790;23;20662;-78
2024/03/10 11:14:13;;;;;;;1.60;1.30;;;18.00;79.70;;;;;;6175494;23;20416;-77
2024/03/10 11:16:40;;;;;;;1.50;0.90;;;18.00;79.00;;;;;;6154305;23;20457;-77
2024/03/10 11:19:14;;;;;;;1.47;0.90;;;17.90;77.80;;;;;;6176816;23;20837;-77
2024/03/10 11:21:41;;;;;;;1.43;0.90;;;17.90;78.70;;;;;;6158291;23;20447;-78
2024/03/10 11:24:16;;;;;;;1.47;0.90;;;17.90;78.00;;;;;;6180289;23;20429;-77
2024/03/10 11:26:43;;;;;;;1.50;0.90;;;17.90;78.70;;;;;;6162746;23;20581;-79
2024/03/10 11:29:27;;;;;;;1.50;0.90;;;17.90;79.20;;;;;;6179186;23;20424;-78
2024/03/10 11:31:57;;;;;;;1.60;1.10;;;17.80;78.00;;;;;;6166140;23;20451;-78
2024/03/10 11:34:25;;;;;;;1.43;0.90;;;17.70;76.90;;;;;;6172211;23;20516;-78
2024/03/10 11:36:52;;;;;;;1.47;0.90;;;17.70;78.00;;;;;;6164506;23;20447;-78
2024/03/10 11:39:21;;;;;;;1.50;0.90;;;17.70;78.30;;;;;;6175841;23;20428;-77
2024/03/10 11:41:49;;;;;;;1.40;0.90;;;17.80;80.00;;;;;;6163020;23;20454;-78
2024/03/10 11:44:17;;;;;;;1.50;0.90;;;17.90;80.10;;;;;;6175684;23;20425;-78
2024/03/10 11:46:44;;;;;;;1.50;0.90;;;18.00;82.00;;;;;;6166389;23;20447;-78
2024/03/10 11:49:12;;;;;;;1.47;0.90;;;17.90;77.20;;;;;;6175050;23;20421;-79
2024/03/10 11:51:39;;;;;;;1.50;0.90;;;17.90;77.40;;;;;;6152535;23;20474;-78
2024/03/10 11:54:11;;;;;;;1.43;0.90;;;18.00;77.50;;;;;;6185627;23;20512;-78
2024/03/10 11:56:42;;;;;;;1.50;1.10;;;18.20;78.60;;;;;;6154154;23;20450;-78
2024/03/10 11:59:11;;;;;;;1.47;0.90;;;18.30;79.10;;;;;;6173939;23;20409;-78
2024/03/10 12:01:39;;;;;;;1.50;1.00;;;18.50;78.70;;;;;;6153555;23;20495;-78
2024/03/10 12:04:08;;;;;;;1.50;0.90;;;18.70;76.20;;;;;;6176217;23;20420;-79
2024/03/10 12:06:35;;;;;;;1.50;0.90;;;18.80;76.90;;;;;;6158032;23;20451;-78
2024/03/10 12:09:07;;;;;;;1.50;0.90;;;19.00;75.80;;;;;;6178189;23;20873;-79
2024/03/10 12:11:33;;;;;;;1.43;0.90;;;18.90;75.00;;;;;;6153326;23;20458;-77
2024/03/10 12:14:08;;;;;;;1.50;0.90;;;18.90;76.50;;;;;;6178317;23;20957;-78
2024/03/10 12:16:35;;;;;;;1.50;0.90;;;18.90;74.80;;;;;;6153538;23;20978;-78
2024/03/10 12:19:03;;;;;;;1.47;0.90;;;18.90;76.20;;;;;;6178345;23;20485;-77
2024/03/10 12:21:32;;;;;;;1.50;0.90;;;19.00;74.80;;;;;;6151126;23;20455;-78
2024/03/10 12:24:00;;;;;;;1.50;0.90;;;18.90;73.60;;;;;;6179420;23;20919;-79
2024/03/10 12:26:28;;;;;;;1.47;0.90;;;18.90;74.90;;;;;;6148310;23;20537;-78
2024/03/10 12:28:56;;;;;;;1.43;0.90;;;18.80;75.70;;;;;;6179263;23;20432;-77
2024/03/10 12:31:27;;;;;;;1.60;1.47;;;18.90;78.40;;;;;;6148690;23;20458;-77
2024/03/10 12:33:55;;;;;;;1.50;1.00;;;19.30;79.40;;;;;;6180892;23;20427;-78
2024/03/10 12:36:22;;;;;;;1.50;0.90;;;19.60;80.20;;;;;;6147258;23;20489;-77
2024/03/10 12:38:49;;;;;;;1.50;0.90;;;19.90;79.10;;;;;;6193275;23;20426;-78
2024/03/10 12:41:18;;;;;;;1.47;0.90;;;19.80;77.10;;;;;;6145493;23;20514;-78
2024/03/10 12:43:45;;;;;;;1.50;0.90;;;19.80;76.90;;;;;;6183376;23;20452;-78
2024/03/10 12:46:17;;;;;;;1.50;0.90;;;19.70;77.40;;;;;;6142872;23;20451;-78
2024/03/10 12:48:47;;;;;;;1.47;0.90;;;19.50;77.50;;;;;;6184668;23;20405;-77
2024/03/10 12:51:14;;;;;;;1.47;0.90;;;19.20;78.10;;;;;;6144297;23;20481;-77
2024/03/10 12:53:45;;;;;;;1.43;0.90;;;19.10;78.50;;;;;;6186365;23;20431;-78
2024/03/10 12:56:12;;;;;;;1.50;0.90;;;19.10;78.80;;;;;;6156896;23;20439;-78
2024/03/10 12:58:39;;;;;;;1.47;0.90;;;19.00;79.00;;;;;;6196278;23;20425;-78
2024/03/10 13:01:07;;;;;;;1.47;0.90;;;19.00;79.30;;;;;;6152992;23;20425;-78
2024/03/10 13:03:35;;;;;;;1.43;0.90;;;18.90;78.60;;;;;;6200008;23;20417;-78
2024/03/10 13:06:04;;;;;;;1.50;0.90;;;18.90;79.60;;;;;;6149492;23;20429;-78
2024/03/10 13:08:33;;;;;;;1.47;0.87;;;19.00;80.10;;;;;;6198037;23;20427;-79
2024/03/10 13:11:00;;;;;;;1.50;0.90;;;19.20;78.70;;;;;;6147663;23;20429;-77
2024/03/10 13:13:27;;;;;;;1.77;1.67;;;19.40;79.50;;;;;;6198415;23;20425;-76
2024/03/10 13:15:56;;;;;;;1.50;0.90;;;19.40;78.90;;;;;;6151893;23;20424;-76
2024/03/10 13:18:23;;;;;;;1.50;0.90;;;19.40;78.50;;;;;;6206665;23;20456;-77